createdAt,value
2022-09-27T00:02:04.188Z,86.80
2022-09-27T00:04:33.002Z,87.50
2022-09-27T00:07:02.223Z,87.50
2022-09-27T00:09:30.408Z,87.30
2022-09-27T00:11:58.632Z,87.90
2022-09-27T00:14:26.865Z,87.20
2022-09-27T00:16:57.150Z,87.60
2022-09-27T00:19:25.691Z,87.30
2022-09-27T00:21:54.129Z,87.10
2022-09-27T00:24:23.875Z,87.70
2022-09-27T00:26:52.150Z,87.10
2022-09-27T00:29:21.141Z,86.50
2022-09-27T00:31:49.710Z,86.10
2022-09-27T00:34:22.471Z,86.90
2022-09-27T00:36:51.311Z,85.80
2022-09-27T00:39:20.247Z,86.00
2022-09-27T00:41:48.811Z,86.50
2022-09-27T00:44:56.540Z,86.00
2022-09-27T00:47:31.325Z,86.40
2022-09-27T00:50:04.722Z,86.70
2022-09-27T00:52:40.185Z,87.10
2022-09-27T00:55:12.555Z,87.30
2022-09-27T00:57:42.048Z,86.90
2022-09-27T01:00:13.188Z,87.00
2022-09-27T01:02:45.097Z,86.70
2022-09-27T01:05:18.850Z,88.10
2022-09-27T01:07:47.030Z,88.50
2022-09-27T01:10:16.919Z,90.00
2022-09-27T01:12:58.655Z,89.60
2022-09-27T01:15:33.893Z,89.00
2022-09-27T01:18:25.363Z,90.00
2022-09-27T01:21:37.511Z,90.00
2022-09-27T01:24:26.577Z,90.90
2022-09-27T01:27:28.438Z,91.50
2022-09-27T01:30:29.763Z,90.20
2022-09-27T01:33:15.249Z,90.40
2022-09-27T01:35:54.895Z,91.00
2022-09-27T01:38:31.533Z,92.30
2022-09-27T01:41:07.459Z,92.00
2022-09-27T01:43:49.376Z,90.80
2022-09-27T01:46:28.013Z,90.40
2022-09-27T01:49:25.706Z,89.50
2022-09-27T01:51:57.088Z,88.70
2022-09-27T01:54:27.851Z,88.10
2022-09-27T01:57:20.180Z,87.80
2022-09-27T01:59:54.597Z,87.40
2022-09-27T02:02:45.502Z,86.50
2022-09-27T02:05:39.023Z,85.80
2022-09-27T02:08:34.791Z,85.70
2022-09-27T02:11:16.574Z,86.10
2022-09-27T02:13:59.327Z,85.10
2022-09-27T02:16:50.312Z,85.00
2022-09-27T02:19:33.445Z,84.40
2022-09-27T02:22:14.324Z,84.20
2022-09-27T02:24:47.784Z,83.70
2022-09-27T02:27:23.620Z,83.40
2022-09-27T02:29:58.788Z,82.30
2022-09-27T02:32:27.389Z,82.30
2022-09-27T02:34:57.678Z,82.40
2022-09-27T02:37:27.620Z,81.20
2022-09-27T02:39:56.131Z,80.50
2022-09-27T02:42:24.819Z,80.20
2022-09-27T02:44:53.391Z,80.30
2022-09-27T02:47:36.689Z,80.90
2022-09-27T02:50:33.362Z,80.50
2022-09-27T02:53:45.498Z,80.30
2022-09-27T02:56:50.983Z,81.70
2022-09-27T03:00:00.517Z,82.00
2022-09-27T03:02:59.858Z,81.50
2022-09-27T03:05:36.648Z,81.70
2022-09-27T03:08:05.692Z,82.40
2022-09-27T03:10:36.185Z,82.80
2022-09-27T03:13:04.964Z,83.60
2022-09-27T03:15:33.631Z,84.40
2022-09-27T03:18:01.865Z,84.60
2022-09-27T03:21:08.867Z,84.20
2022-09-27T03:23:38.123Z,84.40
2022-09-27T03:26:12.715Z,84.00
2022-09-27T03:28:41.896Z,84.10
2022-09-27T03:31:10.286Z,85.30
2022-09-27T03:33:50.269Z,84.90
2022-09-27T03:36:19.462Z,84.00
2022-09-27T03:38:47.697Z,83.60
2022-09-27T03:41:20.679Z,83.70
2022-09-27T03:43:49.115Z,85.30
2022-09-27T03:46:19.102Z,85.60
2022-09-27T03:48:47.381Z,85.20
2022-09-27T03:51:15.623Z,85.10
2022-09-27T03:53:43.948Z,84.30
2022-09-27T03:56:12.784Z,84.00
2022-09-27T03:58:42.426Z,84.90
2022-09-27T04:01:11.052Z,84.90
2022-09-27T04:03:41.148Z,85.80
2022-09-27T04:06:35.791Z,86.20
2022-09-27T04:09:06.038Z,85.10
2022-09-27T04:11:53.351Z,82.90
2022-09-27T04:14:23.217Z,83.00
2022-09-27T04:17:11.461Z,82.80
2022-09-27T04:20:18.765Z,81.40
2022-09-27T04:22:47.163Z,82.40
2022-09-27T04:25:15.579Z,81.00
2022-09-27T04:27:46.764Z,82.20
2022-09-27T04:30:17.317Z,81.50
2022-09-27T04:33:06.195Z,81.40
2022-09-27T04:36:01.620Z,81.80
2022-09-27T04:38:30.401Z,82.40
2022-09-27T04:41:02.138Z,82.20
2022-09-27T04:43:34.572Z,82.80
2022-09-27T04:46:06.104Z,83.20
2022-09-27T04:48:34.676Z,84.10
2022-09-27T04:51:04.252Z,84.10
2022-09-27T04:53:32.702Z,83.80
2022-09-27T04:56:06.773Z,84.10
2022-09-27T04:58:36.232Z,83.80
2022-09-27T05:01:06.639Z,82.90
2022-09-27T05:03:57.574Z,82.60
2022-09-27T05:06:26.903Z,83.40
2022-09-27T05:08:58.914Z,83.90
2022-09-27T05:11:29.253Z,84.00
2022-09-27T05:14:16.186Z,83.00
2022-09-27T05:16:58.146Z,82.30
2022-09-27T05:19:49.363Z,81.50
2022-09-27T05:22:34.259Z,81.90
2022-09-27T05:25:03.014Z,83.20
2022-09-27T05:27:31.320Z,83.30
2022-09-27T05:30:01.916Z,82.80
2022-09-27T05:32:49.277Z,81.90
2022-09-27T05:35:45.453Z,81.60
2022-09-27T05:38:14.523Z,81.60
2022-09-27T05:40:47.861Z,81.70
2022-09-27T05:43:17.185Z,81.40
2022-09-27T05:45:46.297Z,81.00
2022-09-27T05:48:18.595Z,81.30
2022-09-27T05:50:55.513Z,81.20
2022-09-27T05:53:24.006Z,81.40
2022-09-27T05:55:52.365Z,81.30
2022-09-27T05:58:28.389Z,81.10
2022-09-27T06:01:11.018Z,81.30
2022-09-27T06:04:09.332Z,81.30
2022-09-27T06:07:10.371Z,81.60
2022-09-27T06:09:38.631Z,81.80
2022-09-27T06:12:11.972Z,81.90
2022-09-27T06:14:40.499Z,82.00
2022-09-27T06:17:18.799Z,81.90
2022-09-27T06:19:49.416Z,81.60
2022-09-27T06:22:17.756Z,81.90
2022-09-27T06:24:58.328Z,82.50
2022-09-27T06:27:30.382Z,82.80
2022-09-27T06:30:01.601Z,83.10
2022-09-27T06:32:44.711Z,82.60
2022-09-27T06:35:24.973Z,83.00
2022-09-27T06:37:53.283Z,82.60
2022-09-27T06:40:22.803Z,82.70
2022-09-27T06:42:51.110Z,83.30
2022-09-27T06:45:28.016Z,82.70
2022-09-27T06:48:17.147Z,83.60
2022-09-27T06:50:51.604Z,84.40
2022-09-27T06:53:20.900Z,83.70
2022-09-27T06:55:49.307Z,83.30
2022-09-27T06:58:35.367Z,83.50
2022-09-27T07:01:30.338Z,83.40
2022-09-27T07:04:17.274Z,83.50
2022-09-27T07:07:00.622Z,84.00
2022-09-27T07:09:33.149Z,84.30
2022-09-27T07:12:02.206Z,84.60
2022-09-27T07:14:31.418Z,85.30
2022-09-27T07:16:59.733Z,85.50
2022-09-27T07:19:32.147Z,85.80
2022-09-27T07:22:02.890Z,85.70
2022-09-27T07:24:31.646Z,86.10
2022-09-27T07:27:00.686Z,85.90
2022-09-27T07:29:29.652Z,85.90
2022-09-27T07:31:58.037Z,86.10
2022-09-27T07:34:26.316Z,87.10
2022-09-27T07:36:55.651Z,86.10
2022-09-27T07:39:26.833Z,86.70
2022-09-27T07:41:55.243Z,87.40
2022-09-27T07:44:23.507Z,88.00
2022-09-27T07:47:24.784Z,88.00
2022-09-27T07:50:08.515Z,88.10
2022-09-27T07:52:45.921Z,88.00
2022-09-27T07:55:32.428Z,86.40
2022-09-27T07:58:11.436Z,85.20
2022-09-27T08:00:41.411Z,86.20
2022-09-27T08:03:15.977Z,86.70
2022-09-27T08:05:44.604Z,84.60
2022-09-27T08:08:13.027Z,84.70
2022-09-27T08:10:44.568Z,84.30
2022-09-27T08:13:14.579Z,82.90
2022-09-27T08:15:42.892Z,83.40
2022-09-27T08:18:11.471Z,83.90
2022-09-27T08:20:58.363Z,84.10
2022-09-27T08:23:30.428Z,82.30
2022-09-27T08:26:20.341Z,83.00
2022-09-27T08:28:54.825Z,82.80
2022-09-27T08:31:26.565Z,80.90
2022-09-27T08:33:58.029Z,82.10
2022-09-27T08:36:27.218Z,81.10
2022-09-27T08:38:59.090Z,80.60
2022-09-27T08:41:39.311Z,79.90
2022-09-27T08:44:19.311Z,80.00
2022-09-27T08:47:12.652Z,80.70
2022-09-27T08:49:44.716Z,80.40
2022-09-27T08:52:19.737Z,81.80
2022-09-27T08:54:49.814Z,80.60
2022-09-27T08:57:20.808Z,80.80
2022-09-27T08:59:54.888Z,80.40
2022-09-27T09:02:26.565Z,81.10
2022-09-27T09:04:58.866Z,80.00
2022-09-27T09:07:40.944Z,79.20
2022-09-27T09:10:40.511Z,79.30
2022-09-27T09:13:19.744Z,80.00
2022-09-27T09:15:57.484Z,81.20
2022-09-27T09:18:45.764Z,82.30
2022-09-27T09:21:36.844Z,80.40
2022-09-27T09:24:21.694Z,79.20
2022-09-27T09:26:59.050Z,78.20
2022-09-27T09:29:46.248Z,77.90
2022-09-27T09:32:27.674Z,77.20
2022-09-27T09:35:02.196Z,75.10
2022-09-27T09:37:37.992Z,73.80
2022-09-27T09:40:15.437Z,73.50
2022-09-27T09:42:51.256Z,73.30
2022-09-27T09:45:27.127Z,74.40
2022-09-27T09:48:01.946Z,73.50
2022-09-27T09:50:32.779Z,74.20
2022-09-27T09:53:12.067Z,73.80
2022-09-27T09:55:42.614Z,73.60
2022-09-27T09:58:22.550Z,72.60
2022-09-27T10:01:00.893Z,72.90
2022-09-27T10:03:30.196Z,73.60
2022-09-27T10:05:58.784Z,73.80
2022-09-27T10:08:27.271Z,74.10
2022-09-27T10:11:23.636Z,74.60
2022-09-27T10:13:59.955Z,74.80
2022-09-27T10:16:30.053Z,76.10
2022-09-27T10:19:03.917Z,76.50
2022-09-27T10:21:32.495Z,76.70
2022-09-27T10:24:10.457Z,78.00
2022-09-27T10:27:01.285Z,78.50
2022-09-27T10:29:38.042Z,78.10
2022-09-27T10:32:24.876Z,80.10
2022-09-27T10:35:24.173Z,80.40
2022-09-27T10:37:53.950Z,80.90
2022-09-27T10:40:30.939Z,82.20
2022-09-27T10:43:01.402Z,84.20
2022-09-27T10:45:49.026Z,81.50
2022-09-27T10:48:24.134Z,79.90
2022-09-27T10:51:00.935Z,78.50
2022-09-27T10:53:50.317Z,79.10
2022-09-27T10:56:33.929Z,79.80
2022-09-27T10:59:05.456Z,80.30
2022-09-27T11:01:45.588Z,80.90
2022-09-27T11:04:41.427Z,79.80
2022-09-27T11:07:18.439Z,79.30
2022-09-27T11:09:55.032Z,78.70
2022-09-27T11:12:25.436Z,79.20
2022-09-27T11:14:58.112Z,80.40
2022-09-27T11:17:36.714Z,79.50
2022-09-27T11:20:25.987Z,80.40
2022-09-27T11:23:19.239Z,78.90
2022-09-27T11:26:03.981Z,79.80
2022-09-27T11:28:42.952Z,80.40
2022-09-27T11:31:29.765Z,81.80
2022-09-27T11:34:31.755Z,81.20
2022-09-27T11:37:14.182Z,81.00
2022-09-27T11:39:56.524Z,80.70
2022-09-27T11:42:46.438Z,80.40
2022-09-27T11:45:45.306Z,81.80
2022-09-27T11:48:28.793Z,82.20
2022-09-27T11:51:28.434Z,83.30
2022-09-27T11:54:13.810Z,85.60
2022-09-27T11:56:51.785Z,84.30
2022-09-27T11:59:47.339Z,82.60
2022-09-27T12:02:38.473Z,81.90
2022-09-27T12:05:21.614Z,81.40
2022-09-27T12:08:14.835Z,82.40
2022-09-27T12:10:50.754Z,78.30
2022-09-27T12:13:26.711Z,77.40
2022-09-27T12:15:57.749Z,74.40
2022-09-27T12:18:33.313Z,74.40
2022-09-27T12:21:08.048Z,73.40
2022-09-27T12:23:43.023Z,74.20
2022-09-27T12:26:37.439Z,75.80
2022-09-27T12:29:14.362Z,74.80
2022-09-27T12:31:48.090Z,72.40
2022-09-27T12:34:20.313Z,73.60
2022-09-27T12:36:54.605Z,71.10
2022-09-27T12:39:26.818Z,70.70
2022-09-27T12:42:14.458Z,70.10
2022-09-27T12:44:50.578Z,70.50
2022-09-27T12:47:38.053Z,73.40
2022-09-27T12:50:19.990Z,66.20
2022-09-27T12:52:56.012Z,67.40
2022-09-27T12:55:52.699Z,67.80
2022-09-27T12:58:44.658Z,68.00
2022-09-27T13:01:26.212Z,66.60
2022-09-27T13:04:11.536Z,65.60
2022-09-27T13:06:56.839Z,67.80
2022-09-27T13:09:58.131Z,67.30
2022-09-27T13:12:29.320Z,66.80
2022-09-27T13:15:02.614Z,70.20
2022-09-27T13:17:53.281Z,69.80
2022-09-27T13:20:48.227Z,70.90
2022-09-27T13:23:54.331Z,73.80
2022-09-27T13:26:51.087Z,75.00
2022-09-27T13:29:27.223Z,76.00
2022-09-27T13:32:28.422Z,76.70
2022-09-27T13:35:14.011Z,77.80
2022-09-27T13:37:55.487Z,81.00
2022-09-27T13:40:33.282Z,81.30
2022-09-27T13:43:47.644Z,79.20
2022-09-27T13:46:49.699Z,76.50
2022-09-27T13:49:29.139Z,75.50
2022-09-27T13:52:22.558Z,73.70
2022-09-27T13:55:08.032Z,74.50
2022-09-27T13:57:49.620Z,74.20
2022-09-27T14:00:23.934Z,73.60
2022-09-27T14:03:02.762Z,73.00
2022-09-27T14:05:42.501Z,74.20
2022-09-27T14:08:21.457Z,74.60
2022-09-27T14:10:49.707Z,75.20
2022-09-27T14:13:21.611Z,72.90
2022-09-27T14:16:03.017Z,75.70
2022-09-27T14:18:31.752Z,74.00
2022-09-27T14:21:18.421Z,74.30
2022-09-27T14:23:55.077Z,69.60
2022-09-27T14:26:25.301Z,70.10
2022-09-27T14:28:53.938Z,68.00
2022-09-27T14:31:31.276Z,68.20
2022-09-27T14:34:19.627Z,64.90
2022-09-27T14:37:08.265Z,66.90
2022-09-27T14:39:56.293Z,66.30
2022-09-27T14:42:36.488Z,67.00
2022-09-27T14:45:23.652Z,67.90
2022-09-27T14:47:53.087Z,67.60
2022-09-27T14:50:25.599Z,68.90
2022-09-27T14:52:57.606Z,68.70
2022-09-27T14:55:28.287Z,68.90
2022-09-27T14:57:58.956Z,70.00
2022-09-27T15:00:32.127Z,70.60
2022-09-27T15:03:03.318Z,70.30
2022-09-27T15:05:34.171Z,69.20
2022-09-27T15:08:07.467Z,68.00
2022-09-27T15:10:36.934Z,69.40
2022-09-27T15:13:06.963Z,70.50
2022-09-27T15:15:36.537Z,73.00
2022-09-27T15:18:05.721Z,73.40
2022-09-27T15:20:35.678Z,73.60
2022-09-27T15:23:06.294Z,75.30
2022-09-27T15:25:37.604Z,74.70
2022-09-27T15:28:08.614Z,77.00
2022-09-27T15:30:38.930Z,79.70
2022-09-27T15:33:09.319Z,80.60
2022-09-27T15:35:38.178Z,80.10
2022-09-27T15:38:24.805Z,79.20
2022-09-27T15:41:05.557Z,78.20
2022-09-27T15:43:37.146Z,78.30
2022-09-27T15:46:25.338Z,77.40
2022-09-27T15:49:27.556Z,77.00
2022-09-27T15:51:56.799Z,76.50
2022-09-27T15:54:30.236Z,73.90
2022-09-27T15:57:04.352Z,74.40
2022-09-27T15:59:34.890Z,74.20
2022-09-27T16:02:08.134Z,73.90
2022-09-27T16:04:36.634Z,73.40
2022-09-27T16:07:08.971Z,73.90
2022-09-27T16:09:39.273Z,79.20
2022-09-27T16:12:07.790Z,81.00
2022-09-27T16:14:35.902Z,80.20
2022-09-27T16:17:03.988Z,80.30
2022-09-27T16:19:32.109Z,80.00
2022-09-27T16:22:03.395Z,78.10
2022-09-27T16:24:32.079Z,77.60
2022-09-27T16:27:01.593Z,76.60
2022-09-27T16:29:29.626Z,76.20
2022-09-27T16:31:57.761Z,75.90
2022-09-27T16:34:25.919Z,76.00
2022-09-27T16:36:54.049Z,75.60
2022-09-27T16:39:22.146Z,75.60
2022-09-27T16:41:52.392Z,75.50
2022-09-27T16:44:21.847Z,76.00
2022-09-27T16:46:50.161Z,75.80
2022-09-27T16:49:40.808Z,76.80
2022-09-27T16:52:10.154Z,76.70
2022-09-27T16:54:38.238Z,76.90
2022-09-27T16:57:06.360Z,77.60
2022-09-27T16:59:36.080Z,78.50
2022-09-27T17:02:05.534Z,78.40
2022-09-27T17:04:33.620Z,79.30
2022-09-27T17:07:02.014Z,80.00
2022-09-27T17:09:30.434Z,79.40
2022-09-27T17:11:58.611Z,79.50
2022-09-27T17:14:27.267Z,79.40
2022-09-27T17:16:56.659Z,79.60
2022-09-27T17:19:24.784Z,79.80
2022-09-27T17:21:52.961Z,80.10
2022-09-27T17:24:21.109Z,80.30
2022-09-27T17:26:49.438Z,81.20
2022-09-27T17:29:18.159Z,81.10
2022-09-27T17:31:46.946Z,80.90
2022-09-27T17:34:17.170Z,80.60
2022-09-27T17:36:48.389Z,81.70
2022-09-27T17:39:18.310Z,81.20
2022-09-27T17:41:46.520Z,80.90
2022-09-27T17:44:18.251Z,80.80
2022-09-27T17:47:08.371Z,80.80
2022-09-27T17:49:55.218Z,81.40
2022-09-27T17:52:23.531Z,80.80
2022-09-27T17:54:54.463Z,80.50
2022-09-27T17:57:22.686Z,80.70
2022-09-27T17:59:50.778Z,80.80
2022-09-27T18:02:20.263Z,80.90
2022-09-27T18:04:49.824Z,80.80
2022-09-27T18:07:19.738Z,81.20
2022-09-27T18:09:47.847Z,80.10
2022-09-27T18:12:16.900Z,79.70
2022-09-27T18:14:45.225Z,78.90
2022-09-27T18:17:13.433Z,79.30
2022-09-27T18:19:41.797Z,79.30
2022-09-27T18:22:11.392Z,80.00
2022-09-27T18:24:39.414Z,79.80
2022-09-27T18:27:07.580Z,79.20
2022-09-27T18:29:35.615Z,80.20
2022-09-27T18:32:03.843Z,79.80
2022-09-27T18:34:31.927Z,78.70
2022-09-27T18:37:00.113Z,78.20
2022-09-27T18:39:29.590Z,77.90
2022-09-27T18:41:57.622Z,79.20
2022-09-27T18:44:25.791Z,77.70
2022-09-27T18:46:53.932Z,77.60
2022-09-27T18:49:25.779Z,77.20
2022-09-27T18:51:55.827Z,78.00
2022-09-27T18:54:24.089Z,78.80
2022-09-27T18:56:53.742Z,78.00
2022-09-27T18:59:23.545Z,78.80
2022-09-27T19:01:52.196Z,78.30
2022-09-27T19:04:24.725Z,78.40
2022-09-27T19:06:53.475Z,78.80
2022-09-27T19:09:22.031Z,78.50
2022-09-27T19:11:50.333Z,78.70
2022-09-27T19:14:21.365Z,78.40
2022-09-27T19:16:49.991Z,79.10
2022-09-27T19:19:19.549Z,79.50
2022-09-27T19:21:48.016Z,79.50
2022-09-27T19:24:16.944Z,80.20
2022-09-27T19:26:45.654Z,80.20
2022-09-27T19:29:14.774Z,80.30
2022-09-27T19:31:44.467Z,80.30
2022-09-27T19:34:12.819Z,80.30
2022-09-27T19:36:40.984Z,80.50
2022-09-27T19:39:09.163Z,80.70
2022-09-27T19:41:37.528Z,80.80
2022-09-27T19:44:06.712Z,80.30
2022-09-27T19:46:34.907Z,80.80
2022-09-27T19:49:04.432Z,80.00
2022-09-27T19:51:33.352Z,80.80
2022-09-27T19:54:01.428Z,81.50
2022-09-27T19:56:29.491Z,82.10
2022-09-27T19:58:57.615Z,82.10
2022-09-27T20:01:26.828Z,81.70
2022-09-27T20:03:56.947Z,82.00
2022-09-27T20:06:26.779Z,82.60
2022-09-27T20:08:55.724Z,82.80
2022-09-27T20:11:26.266Z,82.10
2022-09-27T20:13:54.620Z,81.20
2022-09-27T20:16:24.267Z,81.40
2022-09-27T20:18:53.904Z,81.50
2022-09-27T20:21:23.972Z,81.90
2022-09-27T20:23:54.601Z,82.00
2022-09-27T20:26:24.418Z,82.10
2022-09-27T20:28:54.352Z,83.30
2022-09-27T20:31:24.432Z,82.90
2022-09-27T20:33:52.998Z,82.70
2022-09-27T20:36:22.390Z,83.00
2022-09-27T20:38:58.194Z,83.00
2022-09-27T20:41:31.255Z,83.20
2022-09-27T20:44:01.170Z,83.40
2022-09-27T20:46:29.343Z,84.00
2022-09-27T20:48:59.032Z,83.60
2022-09-27T20:51:28.322Z,84.60
2022-09-27T20:53:58.051Z,84.60
2022-09-27T20:56:29.276Z,84.70
2022-09-27T20:58:58.500Z,84.80
2022-09-27T21:01:27.970Z,85.10
2022-09-27T21:03:56.928Z,85.60
2022-09-27T21:06:26.996Z,85.20
2022-09-27T21:08:55.488Z,85.10
2022-09-27T21:11:25.393Z,84.80
2022-09-27T21:13:54.492Z,85.00
2022-09-27T21:16:25.526Z,85.20
2022-09-27T21:18:55.263Z,85.30
2022-09-27T21:21:24.818Z,85.40
2022-09-27T21:23:56.022Z,85.50
2022-09-27T21:26:27.255Z,85.40
2022-09-27T21:28:57.304Z,85.70
2022-09-27T21:31:27.320Z,86.20
2022-09-27T21:33:58.934Z,86.20
2022-09-27T21:36:29.454Z,86.20
2022-09-27T21:38:58.210Z,86.30
2022-09-27T21:41:28.638Z,86.70
2022-09-27T21:43:57.264Z,86.70
2022-09-27T21:46:27.222Z,86.50
2022-09-27T21:48:58.000Z,86.90
2022-09-27T21:51:27.933Z,87.20
2022-09-27T21:53:57.454Z,87.50
2022-09-27T21:56:29.454Z,86.70
2022-09-27T21:58:57.602Z,86.10
2022-09-27T22:01:27.703Z,87.40
2022-09-27T22:03:55.984Z,86.30
2022-09-27T22:06:26.067Z,86.00
2022-09-27T22:08:56.220Z,85.60
2022-09-27T22:11:27.703Z,85.70
2022-09-27T22:13:57.887Z,85.70
2022-09-27T22:16:27.640Z,85.60
2022-09-27T22:18:57.300Z,85.70
2022-09-27T22:21:28.666Z,86.30
2022-09-27T22:23:57.856Z,86.60
2022-09-27T22:26:28.057Z,87.00
2022-09-27T22:28:58.759Z,87.80
2022-09-27T22:31:27.737Z,88.50
2022-09-27T22:33:58.355Z,88.70
2022-09-27T22:36:27.838Z,88.80
2022-09-27T22:38:56.491Z,89.30
2022-09-27T22:41:25.047Z,90.30
2022-09-27T22:43:53.890Z,90.70
2022-09-27T22:46:23.667Z,91.10
2022-09-27T22:48:51.971Z,91.50
2022-09-27T22:51:20.755Z,91.60
2022-09-27T22:53:48.859Z,91.80
2022-09-27T22:56:18.940Z,92.60
2022-09-27T22:58:48.168Z,92.10
2022-09-27T23:01:18.386Z,92.20
2022-09-27T23:03:48.440Z,92.30
2022-09-27T23:06:18.207Z,92.50
2022-09-27T23:08:47.623Z,92.60
2022-09-27T23:11:18.756Z,92.80
2022-09-27T23:13:48.088Z,92.60
2022-09-27T23:16:17.694Z,92.60
2022-09-27T23:18:47.655Z,92.90
2022-09-27T23:21:17.104Z,93.20
2022-09-27T23:23:47.027Z,92.80
2022-09-27T23:26:17.338Z,93.00
2022-09-27T23:28:46.058Z,93.10
2022-09-27T23:31:16.776Z,93.10
2022-09-27T23:33:48.677Z,93.00
2022-09-27T23:36:18.362Z,93.20
2022-09-27T23:38:48.486Z,93.00
2022-09-27T23:41:18.271Z,92.90
2022-09-27T23:43:48.232Z,93.30
2022-09-27T23:46:16.854Z,93.20
2022-09-27T23:48:45.107Z,93.70
2022-09-27T23:51:14.664Z,93.50
2022-09-27T23:53:42.916Z,93.40
2022-09-27T23:56:15.224Z,93.30
2022-09-27T23:58:44.677Z,93.60
